createdAt,value
2018-02-16T00:01:09.088Z,100578.08
2018-02-16T00:03:36.573Z,100577.81
2018-02-16T00:06:04.032Z,100574.97
2018-02-16T00:08:31.468Z,100578.78
2018-02-16T00:10:58.968Z,100587.57
2018-02-16T00:13:26.418Z,100607.03
2018-02-16T00:15:53.980Z,100605.27
2018-02-16T00:18:21.442Z,100607.08
2018-02-16T00:20:49.073Z,100598.83
2018-02-16T00:23:16.514Z,100590.30
2018-02-16T00:25:44.126Z,100607.11
2018-02-16T00:28:11.652Z,100610.88
2018-02-16T00:30:39.081Z,100611.39
2018-02-16T00:33:06.538Z,100617.86
2018-02-16T00:35:33.985Z,100607.61
2018-02-16T00:38:01.441Z,100600.65
2018-02-16T00:40:28.874Z,100612.73
2018-02-16T00:42:56.312Z,100618.38
2018-02-16T00:45:23.736Z,100618.88
2018-02-16T00:47:51.198Z,100629.06
2018-02-16T00:50:18.629Z,100623.91
2018-02-16T00:52:46.124Z,100633.34
2018-02-16T00:55:13.668Z,100638.69
2018-02-16T00:57:41.887Z,100628.27
2018-02-16T01:00:09.336Z,100641.53
2018-02-16T01:02:37.521Z,100659.56
2018-02-16T01:05:04.981Z,100654.94
2018-02-16T01:07:32.409Z,100651.27
2018-02-16T01:09:59.868Z,100657.02
2018-02-16T01:12:27.306Z,100652.19
2018-02-16T01:14:54.785Z,100649.50
2018-02-16T01:17:22.215Z,100652.37
2018-02-16T01:19:49.692Z,100668.22
2018-02-16T01:22:17.128Z,100666.62
2018-02-16T01:24:44.556Z,100661.59
2018-02-16T01:27:12.063Z,100655.24
2018-02-16T01:29:39.505Z,100664.58
2018-02-16T01:32:06.992Z,100665.56
2018-02-16T01:34:34.518Z,100665.89
2018-02-16T01:37:02.098Z,100653.41
2018-02-16T01:39:29.544Z,100649.20
2018-02-16T01:41:57.007Z,100659.31
2018-02-16T01:44:24.537Z,100679.00
2018-02-16T01:46:51.990Z,100701.33
2018-02-16T01:49:19.426Z,100705.11
2018-02-16T01:51:46.868Z,100712.88
2018-02-16T01:54:14.329Z,100711.25
2018-02-16T01:56:42.064Z,100713.08
2018-02-16T01:59:09.585Z,100713.62
2018-02-16T02:01:37.013Z,100715.40
2018-02-16T02:04:04.456Z,100721.29
2018-02-16T02:06:31.906Z,100714.13
2018-02-16T02:08:59.369Z,100705.09
2018-02-16T02:11:26.800Z,100711.36
2018-02-16T02:13:54.247Z,100713.50
2018-02-16T02:16:21.683Z,100714.92
2018-02-16T02:18:49.224Z,100717.39
2018-02-16T02:21:16.681Z,100712.79
2018-02-16T02:23:44.132Z,100711.69
2018-02-16T02:26:12.700Z,100717.68
2018-02-16T02:28:40.173Z,100722.96
2018-02-16T02:31:07.734Z,100729.95
2018-02-16T02:33:35.191Z,100719.20
2018-02-16T02:36:02.648Z,100719.64
2018-02-16T02:38:30.125Z,100715.66
2018-02-16T02:40:57.767Z,100719.17
2018-02-16T02:43:25.232Z,100717.44
2018-02-16T02:45:52.755Z,100713.81
2018-02-16T02:48:20.192Z,100728.94
2018-02-16T02:50:47.645Z,100726.23
2018-02-16T02:53:15.094Z,100734.16
2018-02-16T02:55:43.332Z,100732.96
2018-02-16T02:58:10.781Z,100734.25
2018-02-16T03:00:38.237Z,100746.61
2018-02-16T03:03:05.680Z,100752.27
2018-02-16T03:05:33.124Z,100756.30
2018-02-16T03:08:00.592Z,100757.05
2018-02-16T03:10:28.073Z,100755.73
2018-02-16T03:12:55.520Z,100754.73
2018-02-16T03:15:22.981Z,100758.58
2018-02-16T03:17:50.408Z,100759.42
2018-02-16T03:20:17.842Z,100756.97
2018-02-16T03:22:45.301Z,100764.67
2018-02-16T03:25:12.749Z,100774.69
2018-02-16T03:27:40.799Z,100783.41
2018-02-16T03:30:08.238Z,100789.03
2018-02-16T03:32:35.690Z,100791.00
2018-02-16T03:35:03.300Z,100794.38
2018-02-16T03:37:30.757Z,100804.14
2018-02-16T03:39:58.280Z,100810.41
2018-02-16T03:42:25.729Z,100808.09
2018-02-16T03:44:53.178Z,100806.63
2018-02-16T03:47:20.689Z,100809.89
2018-02-16T03:49:48.124Z,100811.69
2018-02-16T03:52:15.604Z,100804.97
2018-02-16T03:54:43.060Z,100797.49
2018-02-16T03:57:10.485Z,100808.05
2018-02-16T03:59:38.061Z,100826.61
2018-02-16T04:02:05.569Z,100837.81
2018-02-16T04:04:33.026Z,100841.29
2018-02-16T04:07:00.504Z,100845.17
2018-02-16T04:09:27.964Z,100845.08
2018-02-16T04:11:55.410Z,100850.01
2018-02-16T04:14:22.870Z,100848.64
2018-02-16T04:16:50.296Z,100856.42
2018-02-16T04:19:17.767Z,100854.34
2018-02-16T04:21:45.204Z,100858.09
2018-02-16T04:24:12.656Z,100860.94
2018-02-16T04:26:40.089Z,100875.77
2018-02-16T04:29:07.605Z,100882.89
2018-02-16T04:31:35.045Z,100879.88
2018-02-16T04:34:02.481Z,100884.48
2018-02-16T04:36:30.006Z,100882.66
2018-02-16T04:38:57.523Z,100892.86
2018-02-16T04:41:24.997Z,100903.58
2018-02-16T04:43:52.421Z,100910.64
2018-02-16T04:46:19.868Z,100912.19
2018-02-16T04:48:47.372Z,100908.63
2018-02-16T04:51:14.817Z,100912.82
2018-02-16T04:53:42.948Z,100903.16
2018-02-16T04:56:10.417Z,100896.74
2018-02-16T04:58:37.846Z,100892.88
2018-02-16T05:01:05.343Z,100900.84
2018-02-16T05:03:32.780Z,100896.33
2018-02-16T05:06:00.242Z,100907.05
2018-02-16T05:08:27.671Z,100909.81
2018-02-16T05:10:55.125Z,100909.78
2018-02-16T05:13:22.554Z,100918.44
2018-02-16T05:15:50.269Z,100915.11
2018-02-16T05:18:17.798Z,100923.86
2018-02-16T05:20:45.236Z,100927.17
2018-02-16T05:23:13.781Z,100932.52
2018-02-16T05:25:41.230Z,100937.42
2018-02-16T05:28:08.685Z,100934.97
2018-02-16T05:30:36.123Z,100939.73
2018-02-16T05:33:03.680Z,100942.08
2018-02-16T05:35:31.125Z,100950.98
2018-02-16T05:37:58.592Z,100954.88
2018-02-16T05:40:26.042Z,100960.07
2018-02-16T05:42:53.529Z,100964.78
2018-02-16T05:45:21.010Z,100955.33
2018-02-16T05:47:48.489Z,100950.09
2018-02-16T05:50:15.928Z,100945.20
2018-02-16T05:52:44.285Z,100950.09
2018-02-16T05:55:11.741Z,100958.50
2018-02-16T05:57:39.197Z,100960.22
2018-02-16T06:00:07.647Z,100979.31
2018-02-16T06:02:35.271Z,100977.91
2018-02-16T06:05:02.896Z,100981.16
2018-02-16T06:07:30.340Z,100988.04
2018-02-16T06:09:57.796Z,100992.38
2018-02-16T06:25:33.082Z,101016.44
2018-02-16T06:28:00.540Z,101017.09
2018-02-16T06:30:28.013Z,101016.73
2018-02-16T06:32:55.437Z,101021.00
2018-02-16T06:35:22.893Z,101022.09
2018-02-16T06:37:50.351Z,101022.80
2018-02-16T06:40:18.015Z,101021.83
2018-02-16T06:42:45.486Z,101027.11
2018-02-16T06:45:13.269Z,101030.27
2018-02-16T06:47:40.711Z,101034.41
2018-02-16T06:50:08.254Z,101038.35
2018-02-16T06:52:35.729Z,101038.97
2018-02-16T06:55:03.192Z,101037.52
2018-02-16T06:57:30.627Z,101043.58
2018-02-16T06:59:58.113Z,101055.13
2018-02-16T07:02:25.549Z,101061.52
2018-02-16T07:04:53.002Z,101073.05
2018-02-16T07:07:20.454Z,101068.45
2018-02-16T07:09:47.916Z,101071.23
2018-02-16T07:12:15.383Z,101073.00
2018-02-16T07:14:42.826Z,101080.94
2018-02-16T07:17:10.350Z,101077.86
2018-02-16T07:19:37.794Z,101081.47
2018-02-16T07:22:05.237Z,101081.70
2018-02-16T07:24:32.670Z,101073.23
2018-02-16T07:27:00.141Z,101073.47
2018-02-16T07:29:27.577Z,101079.56
2018-02-16T07:31:55.030Z,101081.03
2018-02-16T07:34:22.482Z,101082.63
2018-02-16T07:36:49.922Z,101086.08
2018-02-16T07:39:17.378Z,101085.20
2018-02-16T07:41:44.944Z,101082.92
2018-02-16T07:44:12.433Z,101086.18
2018-02-16T07:46:39.873Z,101091.44
2018-02-16T07:49:07.414Z,101102.61
2018-02-16T07:51:34.860Z,101113.22
2018-02-16T07:54:02.583Z,101124.84
2018-02-16T07:56:30.021Z,101134.97
2018-02-16T07:58:57.644Z,101143.11
2018-02-16T08:01:25.131Z,101156.48
2018-02-16T08:03:52.583Z,101168.94
2018-02-16T08:06:20.015Z,101164.77
2018-02-16T08:08:47.525Z,101164.18
2018-02-16T08:11:14.971Z,101163.20
2018-02-16T08:13:42.581Z,101164.77
2018-02-16T08:16:10.029Z,101157.97
2018-02-16T08:18:37.485Z,101162.98
2018-02-16T08:21:05.101Z,101166.59
2018-02-16T08:23:32.753Z,101168.73
2018-02-16T08:26:00.201Z,101170.96
2018-02-16T08:28:27.649Z,101174.89
2018-02-16T08:30:55.107Z,101176.63
2018-02-16T08:33:22.547Z,101180.73
2018-02-16T08:35:50.008Z,101184.80
2018-02-16T08:38:17.446Z,101188.31
2018-02-16T08:40:45.054Z,101192.20
2018-02-16T08:43:12.497Z,101189.30
2018-02-16T08:45:39.951Z,101193.81
2018-02-16T08:48:07.389Z,101195.84
2018-02-16T08:50:34.847Z,101202.36
2018-02-16T08:53:02.280Z,101206.72
2018-02-16T08:55:29.732Z,101202.95
2018-02-16T08:57:57.546Z,101210.78
2018-02-16T09:00:25.235Z,101214.73
2018-02-16T09:02:52.970Z,101215.70
2018-02-16T09:05:22.937Z,101223.09
2018-02-16T09:07:52.896Z,101233.74
2018-02-16T09:10:20.488Z,101235.91
2018-02-16T09:12:48.022Z,101237.00
2018-02-16T09:15:17.961Z,101241.98
2018-02-16T09:17:45.446Z,101245.11
2018-02-16T09:20:12.968Z,101245.16
2018-02-16T09:22:40.654Z,101250.25
2018-02-16T09:25:08.133Z,101247.58
2018-02-16T09:27:35.586Z,101250.63
2018-02-16T09:30:03.079Z,101250.50
2018-02-16T09:32:30.573Z,101252.00
2018-02-16T09:34:58.090Z,101252.19
2018-02-16T09:37:25.637Z,101256.98
2018-02-16T09:39:53.843Z,101261.88
2018-02-16T09:42:21.358Z,101266.39
2018-02-16T09:44:48.844Z,101272.15
2018-02-16T09:47:16.400Z,101277.08
2018-02-16T09:49:43.888Z,101280.11
2018-02-16T09:52:11.401Z,101288.12
2018-02-16T09:54:38.900Z,101292.94
2018-02-16T09:57:06.453Z,101291.58
2018-02-16T09:59:33.956Z,101297.59
2018-02-16T10:02:01.474Z,101302.16
2018-02-16T10:04:28.953Z,101293.84
2018-02-16T10:06:56.414Z,101289.81
2018-02-16T10:09:23.901Z,101287.25
2018-02-16T10:11:51.463Z,101287.92
2018-02-16T10:14:18.925Z,101286.22
2018-02-16T10:16:46.384Z,101285.37
2018-02-16T10:19:14.166Z,101283.20
2018-02-16T10:21:41.650Z,101288.91
2018-02-16T10:24:09.325Z,101291.39
2018-02-16T10:26:36.777Z,101290.37
2018-02-16T10:29:04.273Z,101302.31
2018-02-16T10:31:31.745Z,101309.33
2018-02-16T10:33:59.186Z,101310.86
2018-02-16T10:36:26.678Z,101307.45
2018-02-16T10:38:54.126Z,101307.27
2018-02-16T10:41:21.606Z,101303.17
2018-02-16T10:43:49.157Z,101305.59
2018-02-16T10:46:16.768Z,101313.32
2018-02-16T10:48:45.236Z,101311.61
2018-02-16T10:51:13.118Z,101311.50
2018-02-16T10:53:40.590Z,101308.75
2018-02-16T10:56:08.094Z,101313.26
2018-02-16T10:58:36.700Z,101317.52
2018-02-16T11:01:09.883Z,101318.37
2018-02-16T11:03:38.363Z,101328.08
2018-02-16T11:06:12.220Z,101330.01
2018-02-16T11:08:45.303Z,101336.24
2018-02-16T11:11:12.874Z,101327.64
2018-02-16T11:13:40.412Z,101326.19
2018-02-16T11:16:07.846Z,101325.19
2018-02-16T11:18:35.395Z,101326.59
2018-02-16T11:21:02.978Z,101319.33
2018-02-16T11:23:30.510Z,101315.11
2018-02-16T11:25:57.955Z,101318.61
2018-02-16T11:28:25.483Z,101316.07
2018-02-16T11:30:53.015Z,101320.64
2018-02-16T11:33:20.801Z,101322.17
2018-02-16T11:35:48.276Z,101316.62
2018-02-16T11:38:15.810Z,101313.74
2018-02-16T11:40:43.488Z,101314.28
2018-02-16T11:43:10.975Z,101307.35
2018-02-16T11:45:38.424Z,101307.44
2018-02-16T11:48:06.384Z,101299.73
2018-02-16T11:50:33.872Z,101302.98
2018-02-16T11:53:01.483Z,101297.59
2018-02-16T11:55:28.987Z,101298.61
2018-02-16T11:57:56.421Z,101297.66
2018-02-16T12:00:23.889Z,101299.63
2018-02-16T12:02:52.714Z,101296.67
2018-02-16T12:05:20.170Z,101289.38
2018-02-16T12:07:47.644Z,101295.44
2018-02-16T12:10:15.601Z,101286.44
2018-02-16T12:12:43.069Z,101288.92
2018-02-16T12:15:10.558Z,101286.30
2018-02-16T12:17:38.038Z,101289.84
2018-02-16T12:20:05.640Z,101286.17
2018-02-16T12:22:33.153Z,101282.16
2018-02-16T12:25:00.799Z,101281.34
2018-02-16T12:27:28.293Z,101282.59
2018-02-16T12:29:55.771Z,101275.14
2018-02-16T12:32:23.264Z,101277.78
2018-02-16T12:34:50.745Z,101271.45
2018-02-16T12:37:19.321Z,101272.27
2018-02-16T12:39:49.128Z,101274.03
2018-02-16T12:42:16.914Z,101267.27
2018-02-16T12:44:44.875Z,101267.00
2018-02-16T12:47:12.347Z,101272.50
2018-02-16T12:49:39.829Z,101268.07
2018-02-16T12:52:07.453Z,101256.47
2018-02-16T12:54:35.503Z,101253.96
2018-02-16T12:57:02.973Z,101257.00
2018-02-16T12:59:30.545Z,101263.34
2018-02-16T13:01:58.044Z,101253.69
2018-02-16T13:04:25.582Z,101252.20
2018-02-16T13:06:53.222Z,101246.87
2018-02-16T13:09:20.942Z,101250.66
2018-02-16T13:11:48.410Z,101244.09
2018-02-16T13:14:15.911Z,101249.19
2018-02-16T13:16:43.499Z,101240.68
2018-02-16T13:19:10.981Z,101238.35
2018-02-16T13:21:38.429Z,101234.38
2018-02-16T13:24:07.237Z,101238.44
2018-02-16T13:26:34.749Z,101237.37
2018-02-16T13:29:02.438Z,101227.73
2018-02-16T13:31:29.901Z,101226.41
2018-02-16T13:33:57.369Z,101221.33
2018-02-16T13:36:24.864Z,101218.34
2018-02-16T13:38:52.400Z,101225.64
2018-02-16T13:41:19.890Z,101226.59
2018-02-16T13:43:47.481Z,101216.30
2018-02-16T13:46:15.104Z,101215.00
2018-02-16T13:48:42.576Z,101214.81
2018-02-16T13:51:10.020Z,101223.78
2018-02-16T13:53:37.490Z,101216.67
2018-02-16T13:56:04.945Z,101216.44
2018-02-16T13:58:32.414Z,101215.98
2018-02-16T14:00:59.997Z,101217.04
2018-02-16T14:03:27.628Z,101211.30
2018-02-16T14:05:55.108Z,101208.11
2018-02-16T14:08:22.676Z,101211.06
2018-02-16T14:10:50.252Z,101216.59
2018-02-16T14:13:17.792Z,101209.93
2018-02-16T14:15:45.244Z,101212.16
2018-02-16T14:18:12.701Z,101222.19
2018-02-16T14:20:40.141Z,101214.56
2018-02-16T14:23:07.790Z,101211.84
2018-02-16T14:25:35.250Z,101220.00
2018-02-16T14:28:02.717Z,101225.20
2018-02-16T14:30:30.202Z,101219.18
2018-02-16T14:32:57.666Z,101227.77
2018-02-16T14:35:25.160Z,101226.73
2018-02-16T14:37:52.674Z,101218.91
2018-02-16T14:40:20.193Z,101217.58
2018-02-16T14:42:47.664Z,101216.47
2018-02-16T14:45:15.241Z,101212.90
2018-02-16T14:47:42.705Z,101208.83
2018-02-16T14:50:10.149Z,101210.31
2018-02-16T14:52:37.618Z,101200.67
2018-02-16T14:55:05.046Z,101207.36
2018-02-16T14:57:35.001Z,101204.81
2018-02-16T15:00:03.670Z,101216.72
2018-02-16T15:02:31.201Z,101207.31
2018-02-16T15:04:58.658Z,101210.67
2018-02-16T15:07:26.111Z,101206.66
2018-02-16T15:09:53.559Z,101214.67
2018-02-16T15:12:20.992Z,101212.73
2018-02-16T15:14:48.454Z,101221.51
2018-02-16T15:17:16.073Z,101220.18
2018-02-16T15:19:43.769Z,101214.20
2018-02-16T15:22:11.229Z,101210.88
2018-02-16T15:24:38.682Z,101207.86
2018-02-16T15:27:06.117Z,101203.97
2018-02-16T15:29:33.782Z,101205.98
2018-02-16T15:32:01.249Z,101213.33
2018-02-16T15:34:28.698Z,101215.15
2018-02-16T15:36:56.134Z,101206.05
2018-02-16T15:39:29.589Z,101208.50
2018-02-16T15:41:59.085Z,101207.19
2018-02-16T15:44:26.776Z,101214.62
2018-02-16T15:46:54.266Z,101221.69
2018-02-16T15:49:21.717Z,101218.52
2018-02-16T15:51:50.546Z,101214.39
2018-02-16T15:54:18.056Z,101218.80
2018-02-16T15:56:45.509Z,101230.55
2018-02-16T15:59:12.940Z,101230.16
2018-02-16T16:01:40.401Z,101233.39
2018-02-16T16:04:07.968Z,101235.91
2018-02-16T16:06:35.402Z,101232.65
2018-02-16T16:09:02.854Z,101229.50
2018-02-16T16:11:30.434Z,101229.28
2018-02-16T16:13:57.911Z,101227.27
2018-02-16T16:16:25.417Z,101227.64
2018-02-16T16:18:52.862Z,101223.63
2018-02-16T16:21:21.883Z,101225.70
2018-02-16T16:23:49.608Z,101224.80
2018-02-16T16:26:17.026Z,101221.17
2018-02-16T16:28:44.472Z,101225.06
2018-02-16T16:31:12.006Z,101220.67
2018-02-16T16:33:39.594Z,101224.09
2018-02-16T16:36:07.033Z,101223.13
2018-02-16T16:38:34.525Z,101218.70
2018-02-16T16:41:02.068Z,101225.63
2018-02-16T16:43:29.540Z,101234.17
2018-02-16T16:45:56.993Z,101238.86
2018-02-16T16:48:24.522Z,101244.92
2018-02-16T16:50:52.035Z,101249.79
2018-02-16T16:53:19.588Z,101251.63
2018-02-16T16:55:47.224Z,101251.84
2018-02-16T16:58:15.704Z,101249.06
2018-02-16T17:00:43.194Z,101249.30
2018-02-16T17:03:10.644Z,101254.19
2018-02-16T17:05:38.246Z,101264.04
2018-02-16T17:08:05.694Z,101268.09
2018-02-16T17:10:33.125Z,101271.01
2018-02-16T17:13:00.682Z,101263.81
2018-02-16T17:15:28.172Z,101265.67
2018-02-16T17:17:55.674Z,101269.42
2018-02-16T17:20:23.104Z,101274.69
2018-02-16T17:22:50.559Z,101277.26
2018-02-16T17:25:17.992Z,101279.70
2018-02-16T17:27:45.859Z,101276.48
2018-02-16T17:30:13.316Z,101286.14
2018-02-16T17:32:40.846Z,101288.97
2018-02-16T17:35:08.418Z,101287.59
2018-02-16T17:37:35.851Z,101291.80
2018-02-16T17:40:03.304Z,101287.58
2018-02-16T17:42:30.720Z,101282.49
2018-02-16T17:44:58.161Z,101282.80
2018-02-16T17:47:25.596Z,101286.22
2018-02-16T17:49:53.050Z,101284.52
2018-02-16T17:52:20.479Z,101280.33
2018-02-16T17:54:47.925Z,101284.62
2018-02-16T17:57:15.381Z,101281.21
2018-02-16T17:59:42.817Z,101284.44
2018-02-16T18:02:10.290Z,101288.28
2018-02-16T18:04:37.889Z,101285.92
2018-02-16T18:07:05.337Z,101283.81
2018-02-16T18:09:32.774Z,101284.95
2018-02-16T18:12:00.544Z,101276.77
2018-02-16T18:14:27.973Z,101273.97
2018-02-16T18:16:55.417Z,101261.27
2018-02-16T18:19:22.850Z,101264.66
2018-02-16T18:21:50.377Z,101258.99
2018-02-16T18:24:17.814Z,101261.48
2018-02-16T18:26:46.136Z,101253.61
2018-02-16T18:29:13.571Z,101256.66
2018-02-16T18:31:40.996Z,101254.80
2018-02-16T18:34:08.455Z,101251.64
2018-02-16T18:36:35.876Z,101250.41
2018-02-16T18:39:03.330Z,101244.81
2018-02-16T18:41:30.784Z,101255.60
2018-02-16T18:43:58.249Z,101239.91
2018-02-16T18:46:25.744Z,101236.47
2018-02-16T18:48:53.185Z,101238.50
2018-02-16T18:51:20.633Z,101244.52
2018-02-16T18:53:48.089Z,101235.98
2018-02-16T18:56:16.502Z,101235.19
2018-02-16T18:58:43.947Z,101236.29
2018-02-16T19:01:11.969Z,101238.17
2018-02-16T19:03:39.474Z,101235.03
2018-02-16T19:06:06.993Z,101229.52
2018-02-16T19:08:34.466Z,101231.81
2018-02-16T19:11:01.949Z,101232.64
2018-02-16T19:13:29.428Z,101228.20
2018-02-16T19:15:56.929Z,101229.19
2018-02-16T19:18:24.348Z,101229.74
2018-02-16T19:20:51.778Z,101229.25
2018-02-16T19:23:19.230Z,101223.42
2018-02-16T19:25:46.898Z,101215.27
2018-02-16T19:28:14.453Z,101222.25
2018-02-16T19:30:41.893Z,101225.25
2018-02-16T19:33:09.341Z,101221.89
2018-02-16T19:35:37.162Z,101222.06
2018-02-16T19:38:04.689Z,101216.97
2018-02-16T19:40:32.129Z,101214.20
2018-02-16T19:43:01.114Z,101213.17
2018-02-16T19:45:28.563Z,101203.51
2018-02-16T19:47:55.986Z,101206.06
2018-02-16T19:50:23.611Z,101199.77
2018-02-16T19:52:51.078Z,101206.60
2018-02-16T19:55:18.626Z,101209.40
2018-02-16T19:57:46.582Z,101210.42
2018-02-16T20:00:14.504Z,101205.06
2018-02-16T20:02:42.020Z,101210.85
2018-02-16T20:05:09.499Z,101215.42
2018-02-16T20:07:37.397Z,101217.26
2018-02-16T20:10:04.934Z,101210.34
2018-02-16T20:12:32.467Z,101210.56
2018-02-16T20:15:01.815Z,101205.19
2018-02-16T20:17:30.377Z,101197.16
2018-02-16T20:19:57.851Z,101193.00
2018-02-16T20:22:25.365Z,101201.31
2018-02-16T20:24:58.037Z,101233.16
2018-02-16T20:27:29.890Z,101229.98
2018-02-16T20:29:57.739Z,101237.33
2018-02-16T20:32:25.219Z,101245.56
2018-02-16T20:34:52.710Z,101240.24
2018-02-16T20:37:21.317Z,101234.05
2018-02-16T20:39:48.915Z,101233.41
2018-02-16T20:42:16.846Z,101230.04
2018-02-16T20:44:44.296Z,101226.27
2018-02-16T20:47:11.965Z,101230.48
2018-02-16T20:49:39.428Z,101226.76
2018-02-16T20:52:06.863Z,101235.20
2018-02-16T20:54:34.392Z,101236.08
2018-02-16T20:57:01.841Z,101238.66
2018-02-16T20:59:29.281Z,101242.83
2018-02-16T21:01:56.713Z,101240.68
2018-02-16T21:04:25.157Z,101239.05
2018-02-16T21:06:52.610Z,101243.06
2018-02-16T21:09:20.069Z,101242.55
2018-02-16T21:11:47.516Z,101251.31
2018-02-16T21:14:14.974Z,101255.47
2018-02-16T21:16:42.999Z,101251.10
2018-02-16T21:19:10.598Z,101257.30
2018-02-16T21:21:38.070Z,101254.30
2018-02-16T21:24:05.625Z,101259.88
2018-02-16T21:26:33.214Z,101262.58
2018-02-16T21:29:00.637Z,101271.33
2018-02-16T21:31:28.128Z,101275.20
2018-02-16T21:33:55.565Z,101280.66
2018-02-16T21:36:23.018Z,101280.39
2018-02-16T21:38:50.478Z,101274.04
2018-02-16T21:41:17.929Z,101277.45
2018-02-16T21:43:45.407Z,101267.08
2018-02-16T21:46:12.864Z,101262.66
2018-02-16T21:48:40.292Z,101265.93
2018-02-16T21:51:07.756Z,101263.73
2018-02-16T21:53:35.313Z,101259.19
2018-02-16T21:56:02.769Z,101258.78
2018-02-16T21:58:30.193Z,101252.33
2018-02-16T22:00:57.642Z,101243.52
2018-02-16T22:03:25.061Z,101244.36
2018-02-16T22:05:52.654Z,101245.06
2018-02-16T22:08:20.122Z,101241.83
2018-02-16T22:10:47.552Z,101248.50
2018-02-16T22:13:15.222Z,101242.56
2018-02-16T22:15:42.808Z,101239.94
2018-02-16T22:18:10.595Z,101243.74
2018-02-16T22:20:38.473Z,101238.06
2018-02-16T22:23:06.542Z,101239.00
2018-02-16T22:25:34.045Z,101238.59
2018-02-16T22:28:01.683Z,101236.25
2018-02-16T22:30:29.416Z,101222.13
2018-02-16T22:32:56.866Z,101231.13
2018-02-16T22:35:24.443Z,101240.22
2018-02-16T22:37:52.108Z,101239.61
2018-02-16T22:40:19.702Z,101229.32
2018-02-16T22:42:51.273Z,101231.00
2018-02-16T22:45:18.906Z,101236.96
2018-02-16T22:47:48.560Z,101231.86
2018-02-16T22:50:16.089Z,101235.34
2018-02-16T22:52:43.805Z,101226.63
2018-02-16T22:55:12.213Z,101221.24
2018-02-16T22:57:39.978Z,101222.11
2018-02-16T23:00:07.524Z,101226.90
2018-02-16T23:02:35.176Z,101216.89
2018-02-16T23:05:02.685Z,101218.23
2018-02-16T23:07:30.247Z,101216.39
2018-02-16T23:09:57.724Z,101210.09
2018-02-16T23:12:25.503Z,101208.55
2018-02-16T23:14:53.002Z,101210.09
2018-02-16T23:17:20.645Z,101211.64
2018-02-16T23:19:48.208Z,101204.00
2018-02-16T23:22:15.987Z,101201.78
2018-02-16T23:24:43.723Z,101198.84
2018-02-16T23:27:11.410Z,101198.69
2018-02-16T23:29:38.969Z,101194.97
2018-02-16T23:32:06.556Z,101196.87
2018-02-16T23:34:34.251Z,101190.64
2018-02-16T23:37:01.805Z,101195.41
2018-02-16T23:39:30.864Z,101193.50
2018-02-16T23:41:58.346Z,101188.63
2018-02-16T23:44:25.797Z,101187.11
2018-02-16T23:46:53.403Z,101187.61
2018-02-16T23:49:20.877Z,101185.22
2018-02-16T23:51:49.019Z,101193.70
2018-02-16T23:54:17.657Z,101188.94
2018-02-16T23:56:45.601Z,101184.84
2018-02-16T23:59:13.070Z,101191.59
